MDLR - La Romana
MDLR 230300Z 00000KT 9999 FEW014CB SCT016 24/23 Q1014 CB/SW
Observed:
visibility:
Flight Rules:
Cloud Levels:
Temperature:
Humidity:
Pressure: